Seiryu Maru — 7JAC — position and weather

sailwx.info

Track history (hours):
 
Tides and Currents Weather Stations Pressure Air Temp Water Temp Dewpoint Dewpoint Depression Visibility Wind Speed Wind Dir Waves Ship Positions

Seiryu Maru

Last reported at 2017-Dec-18 05:00 UTC. Time now 2017-Dec-18 05:20 UTC.
Position N 35°02' E 136°51'.

Length 104 m; draft 4 m.

Type: Dredging. MMSI: 432501000.

Date/timePositionNaut miles runAvg speedWind from/ knotsBaromVisibWave heightAir tempDewpointWater temp
2017-Dec-18 05:00N 35°02' E 136°51'2 5.0
2017-Dec-18 04:30N 35°00' E 136°50'0 0.3
2017-Dec-18 04:00N 35°00' E 136°49'2 4.5
2017-Dec-18 03:31N 35°02' E 136°51'1 2.2
2017-Dec-18 03:00N 35°01' E 136°50'1 2.2
2017-Dec-18 02:30N 35°00' E 136°49'0 0.0
2017-Dec-18 02:00N 35°00' E 136°49'0 0.0
2017-Dec-18 01:31N 35°00' E 136°49'0 0.0
2017-Dec-18 01:00N 35°00' E 136°49'3 5.1
2017-Dec-18 00:31N 35°02' E 136°51'1 2.2
2017-Dec-18 00:00N 35°03' E 136°50'1 1.3
2017-Dec-17 23:28N 35°03' E 136°51'  
2017-Dec-14 03:42N 35°03' E 136°51'0 0.0
2017-Dec-14 03:30N 35°03' E 136°51'2 4.7
2017-Dec-14 03:00N 35°01' E 136°50'4 7.2
2017-Dec-14 02:30N 34°59' E 136°47'0 0.1
2017-Dec-14 01:59N 34°59' E 136°47'0 0.0
2017-Dec-14 01:26N 34°59' E 136°47'0 0.0
2017-Dec-14 00:59N 34°59' E 136°47'0 0.0
2017-Dec-14 00:29N 34°59' E 136°47'0 0.0
2017-Dec-13 23:59N 34°59' E 136°47'0 0.0
2017-Dec-13 23:29N 34°59' E 136°47'0 0.0
2017-Dec-13 22:59N 34°59' E 136°47'0 0.0
2017-Dec-13 22:29N 34°59' E 136°47'0 0.0
2017-Dec-13 21:59N 34°59' E 136°47'0 0.0
2017-Dec-13 21:29N 34°59' E 136°47'0 0.1
2017-Dec-13 20:59N 34°59' E 136°47'0 0.0
2017-Dec-13 20:29N 34°59' E 136°47'0 0.1
2017-Dec-13 19:59N 34°59' E 136°47'0 0.1
2017-Dec-13 19:29N 34°59' E 136°47'0 0.0
2017-Dec-13 18:59N 34°59' E 136°47'0 0.0
2017-Dec-13 18:29N 34°59' E 136°47'0 0.0
2017-Dec-13 17:59N 34°59' E 136°47'0 0.0
2017-Dec-13 17:29N 34°59' E 136°47'0 0.0
2017-Dec-13 16:59N 34°59' E 136°47'0 0.0
2017-Dec-13 16:26N 34°59' E 136°47'0 0.0
2017-Dec-13 15:59N 34°59' E 136°47'0 0.0
2017-Dec-13 15:29N 34°59' E 136°47'0 0.0
2017-Dec-13 14:59N 34°59' E 136°47'0 0.0
2017-Dec-13 14:29N 34°59' E 136°47'0 0.0
2017-Dec-13 13:59N 34°59' E 136°47'0 0.0
2017-Dec-13 13:29N 34°59' E 136°47'0 0.1
2017-Dec-13 12:59N 34°59' E 136°47'0 0.1
2017-Dec-13 12:29N 34°59' E 136°47'0 0.0
2017-Dec-13 11:59N 34°59' E 136°47'0 0.0
2017-Dec-13 11:29N 34°59' E 136°47'0 0.0
2017-Dec-13 10:59N 34°59' E 136°47'0 0.0
2017-Dec-13 10:29N 34°59' E 136°47'0 0.0
2017-Dec-13 09:59N 34°59' E 136°47'0 0.0
2017-Dec-13 09:29N 34°59' E 136°47'0 0.0
2017-Dec-13 08:59N 34°59' E 136°47'0 0.0
2017-Dec-13 08:29N 34°59' E 136°47'0 0.0
2017-Dec-13 07:59N 34°59' E 136°47'0 0.1
2017-Dec-13 07:29N 34°59' E 136°47'0 0.0
2017-Dec-13 06:59N 34°59' E 136°47'0 0.1
2017-Dec-13 06:29N 34°59' E 136°47'0 0.1
2017-Dec-13 05:59N 34°59' E 136°47'0 0.1
2017-Dec-13 05:29N 34°59' E 136°47'0 0.1
2017-Dec-13 04:59N 34°59' E 136°47'0 0.1
2017-Dec-13 04:29N 34°59' E 136°47'0 0.0
2017-Dec-13 03:59N 34°59' E 136°47'0 0.0
2017-Dec-13 03:29N 34°59' E 136°47'0 0.0
2017-Dec-13 02:59N 34°59' E 136°47'0 0.0
2017-Dec-13 02:29N 34°59' E 136°47'0 0.0
2017-Dec-13 01:59N 34°59' E 136°47'0 0.1
2017-Dec-13 01:29N 34°59' E 136°47'0 0.0
2017-Dec-13 00:59N 34°59' E 136°47'0 0.1
2017-Dec-13 00:29N 34°59' E 136°47'0 0.0
2017-Dec-12 23:59N 34°59' E 136°47'0 0.0
2017-Dec-12 23:29N 34°59' E 136°47'0 0.0
2017-Dec-12 22:59N 34°59' E 136°47'0 0.0
2017-Dec-12 22:29N 34°59' E 136°47'0 0.0
2017-Dec-12 21:59N 34°59' E 136°47'0 0.0
2017-Dec-12 21:29N 34°59' E 136°47'0 0.0
2017-Dec-12 20:59N 34°59' E 136°47'0 0.1
2017-Dec-12 20:28N 34°59' E 136°47'0 0.0
2017-Dec-12 19:59N 34°59' E 136°47'0 0.0
2017-Dec-12 19:26N 34°59' E 136°47'0 0.1
2017-Dec-12 18:58N 34°59' E 136°47'0 0.0
2017-Dec-12 18:28N 34°59' E 136°47'0 0.0
2017-Dec-12 17:58N 34°59' E 136°47'0 0.0
2017-Dec-12 17:28N 34°59' E 136°47'0 0.0
2017-Dec-12 16:58N 34°59' E 136°47'0 0.0
2017-Dec-12 16:28N 34°59' E 136°47'0 0.0
2017-Dec-12 15:58N 34°59' E 136°47'0 0.0
2017-Dec-12 15:28N 34°59' E 136°47'0 0.0
2017-Dec-12 14:58N 34°59' E 136°47'0 0.0
2017-Dec-12 14:28N 34°59' E 136°47'0 0.0
2017-Dec-12 13:58N 34°59' E 136°47'0 0.1
2017-Dec-12 13:28N 34°59' E 136°47'0 0.0
2017-Dec-12 12:58N 34°59' E 136°47'0 0.0
2017-Dec-12 12:19N 34°59' E 136°47'0 0.0
2017-Dec-12 11:58N 34°59' E 136°47'0 0.0
2017-Dec-12 11:28N 34°59' E 136°47'0 0.0
2017-Dec-12 10:58N 34°59' E 136°47'0 0.1
2017-Dec-12 10:28N 34°59' E 136°47'0 0.0
2017-Dec-12 09:58N 34°59' E 136°47'0 0.1
2017-Dec-12 09:28N 34°59' E 136°47'0 0.1
2017-Dec-12 08:58N 34°59' E 136°47'0 0.0
2017-Dec-12 08:28N 34°59' E 136°47'0 0.0
2017-Dec-12 07:58N 34°59' E 136°47'0 0.0
2017-Dec-12 07:28N 34°59' E 136°47'0 0.0
2017-Dec-12 06:58N 34°59' E 136°47'0 0.0
2017-Dec-12 06:28N 34°59' E 136°47'0 0.0
2017-Dec-12 05:58N 34°59' E 136°47'0 0.0
2017-Dec-12 05:28N 34°59' E 136°47'0 0.0
2017-Dec-12 04:58N 34°59' E 136°47'0 0.0
2017-Dec-12 04:28N 34°59' E 136°47'0 0.1
2017-Dec-12 03:58N 34°59' E 136°47'0 0.0
2017-Dec-12 03:28N 34°59' E 136°47'0 0.0
2017-Dec-12 02:58N 34°59' E 136°47'0 0.0
2017-Dec-12 02:28N 34°59' E 136°47'0 0.0
2017-Dec-12 01:55N 34°59' E 136°47'0 0.0
2017-Dec-12 01:28N 34°59' E 136°47'0 0.1
2017-Dec-12 00:58N 34°59' E 136°47'0 0.0
2017-Dec-12 00:28N 34°59' E 136°47'0 0.0
2017-Dec-12 00:00N 34°59' E 136°47'0 0.1
2017-Dec-11 23:30N 34°59' E 136°47'0 0.0
2017-Dec-11 23:00N 34°59' E 136°47'0 0.0
2017-Dec-11 22:30N 34°59' E 136°47'0 0.0
2017-Dec-11 22:00N 34°59' E 136°47'0 0.0
2017-Dec-11 21:30N 34°59' E 136°47'0 0.0
2017-Dec-11 21:00N 34°59' E 136°47'0 0.0
2017-Dec-11 20:30N 34°59' E 136°47'0 0.0
2017-Dec-11 20:00N 34°59' E 136°47'0 0.0
2017-Dec-11 19:30N 34°59' E 136°47'0 0.0
2017-Dec-11 19:00N 34°59' E 136°47'0 0.0
2017-Dec-11 18:30N 34°59' E 136°47'0 0.0
2017-Dec-11 18:00N 34°59' E 136°47'0 0.0
2017-Dec-11 17:30N 34°59' E 136°47'0 0.0
2017-Dec-11 17:00N 34°59' E 136°47'0 0.0
2017-Dec-11 16:30N 34°59' E 136°47'0 0.0
2017-Dec-11 16:00N 34°59' E 136°47'2 4.9
2017-Dec-11 15:30N 35°00' E 136°49'0 0.0
2017-Dec-11 15:00N 35°00' E 136°49'0 0.0
2017-Dec-11 14:30N 35°00' E 136°49'0 0.0
2017-Dec-11 14:00N 35°00' E 136°49'0 0.0
2017-Dec-11 13:30N 35°00' E 136°49'3 5.3
2017-Dec-11 13:01N 35°02' E 136°51'3 5.5
2017-Dec-11 12:31N 35°00' E 136°49'0 0.2
2017-Dec-11 12:00N 35°00' E 136°49'2 3.9
2017-Dec-11 11:30N 35°02' E 136°51'1 1.4
2017-Dec-11 11:00N 35°01' E 136°50'1 2.6
2017-Dec-11 10:30N 35°00' E 136°49'0 0.0
2017-Dec-11 10:00N 35°00' E 136°49'2 3.3
2017-Dec-11 09:30N 35°02' E 136°51'1 1.1
2017-Dec-11 09:00N 35°02' E 136°51'2 4.4
2017-Dec-11 08:30N 35°00' E 136°49'0 0.0
2017-Dec-11 08:00N 35°00' E 136°49'0 0.0
2017-Dec-11 07:30N 35°00' E 136°49'0 0.0
2017-Dec-11 07:00N 35°00' E 136°49'0 0.0
2017-Dec-11 06:30N 35°00' E 136°49'0 0.0
2017-Dec-11 06:00N 35°00' E 136°49'0 0.0
2017-Dec-11 05:30N 35°00' E 136°49'2 4.7
2017-Dec-11 05:00N 35°02' E 136°51'2 4.8
2017-Dec-11 04:30N 35°00' E 136°49'0 0.1
2017-Dec-11 04:00N 35°00' E 136°49'3 5.1
2017-Dec-11 03:30N 35°02' E 136°51'2 4.5
2017-Dec-11 03:00N 35°00' E 136°50'0 0.9
2017-Dec-11 02:30N 35°00' E 136°49'0 0.0
2017-Dec-11 02:00N 35°00' E 136°49'0 0.0
2017-Dec-11 01:30N 35°00' E 136°49'0 0.0
2017-Dec-11 01:00N 35°00' E 136°49'2 4.7
2017-Dec-11 00:30N 35°02' E 136°51'1 2.1
2017-Dec-11 00:00N 35°03' E 136°50'1 1.3
2017-Dec-10 23:28N 35°03' E 136°51'  
Track history (hours):
 
Tides and Currents Weather Stations Pressure Air Temp Water Temp Dewpoint Dewpoint Depression Visibility Wind Speed Wind Dir Waves Ship Positions

Seiryu Maru

Last reported at 2017-Dec-18 05:00 UTC. Time now 2017-Dec-18 05:20 UTC.
Position N 35°02' E 136°51'.

Length 104 m; draft 4 m.

Type: Dredging. MMSI: 432501000.

Date/timePositionNaut miles runAvg speedWind from/ knotsBaromVisibWave heightAir tempDewpointWater temp
2017-Dec-18 05:00N 35°02' E 136°51'2 5.0
2017-Dec-18 04:30N 35°00' E 136°50'0 0.3
2017-Dec-18 04:00N 35°00' E 136°49'2 4.5
2017-Dec-18 03:31N 35°02' E 136°51'1 2.2
2017-Dec-18 03:00N 35°01' E 136°50'1 2.2
2017-Dec-18 02:30N 35°00' E 136°49'0 0.0
2017-Dec-18 02:00N 35°00' E 136°49'0 0.0
2017-Dec-18 01:31N 35°00' E 136°49'0 0.0
2017-Dec-18 01:00N 35°00' E 136°49'3 5.1
2017-Dec-18 00:31N 35°02' E 136°51'1 2.2
2017-Dec-18 00:00N 35°03' E 136°50'1 1.3
2017-Dec-17 23:28N 35°03' E 136°51'  
2017-Dec-14 03:42N 35°03' E 136°51'0 0.0
2017-Dec-14 03:30N 35°03' E 136°51'2 4.7
2017-Dec-14 03:00N 35°01' E 136°50'4 7.2
2017-Dec-14 02:30N 34°59' E 136°47'0 0.1
2017-Dec-14 01:59N 34°59' E 136°47'0 0.0
2017-Dec-14 01:26N 34°59' E 136°47'0 0.0
2017-Dec-14 00:59N 34°59' E 136°47'0 0.0
2017-Dec-14 00:29N 34°59' E 136°47'0 0.0
2017-Dec-13 23:59N 34°59' E 136°47'0 0.0
2017-Dec-13 23:29N 34°59' E 136°47'0 0.0
2017-Dec-13 22:59N 34°59' E 136°47'0 0.0
2017-Dec-13 22:29N 34°59' E 136°47'0 0.0
2017-Dec-13 21:59N 34°59' E 136°47'0 0.0
2017-Dec-13 21:29N 34°59' E 136°47'0 0.1
2017-Dec-13 20:59N 34°59' E 136°47'0 0.0
2017-Dec-13 20:29N 34°59' E 136°47'0 0.1
2017-Dec-13 19:59N 34°59' E 136°47'0 0.1
2017-Dec-13 19:29N 34°59' E 136°47'0 0.0
2017-Dec-13 18:59N 34°59' E 136°47'0 0.0
2017-Dec-13 18:29N 34°59' E 136°47'0 0.0
2017-Dec-13 17:59N 34°59' E 136°47'0 0.0
2017-Dec-13 17:29N 34°59' E 136°47'0 0.0
2017-Dec-13 16:59N 34°59' E 136°47'0 0.0
2017-Dec-13 16:26N 34°59' E 136°47'0 0.0
2017-Dec-13 15:59N 34°59' E 136°47'0 0.0
2017-Dec-13 15:29N 34°59' E 136°47'0 0.0
2017-Dec-13 14:59N 34°59' E 136°47'0 0.0
2017-Dec-13 14:29N 34°59' E 136°47'0 0.0
2017-Dec-13 13:59N 34°59' E 136°47'0 0.0
2017-Dec-13 13:29N 34°59' E 136°47'0 0.1
2017-Dec-13 12:59N 34°59' E 136°47'0 0.1
2017-Dec-13 12:29N 34°59' E 136°47'0 0.0
2017-Dec-13 11:59N 34°59' E 136°47'0 0.0
2017-Dec-13 11:29N 34°59' E 136°47'0 0.0
2017-Dec-13 10:59N 34°59' E 136°47'0 0.0
2017-Dec-13 10:29N 34°59' E 136°47'0 0.0
2017-Dec-13 09:59N 34°59' E 136°47'0 0.0
2017-Dec-13 09:29N 34°59' E 136°47'0 0.0
2017-Dec-13 08:59N 34°59' E 136°47'0 0.0
2017-Dec-13 08:29N 34°59' E 136°47'0 0.0
2017-Dec-13 07:59N 34°59' E 136°47'0 0.1
2017-Dec-13 07:29N 34°59' E 136°47'0 0.0
2017-Dec-13 06:59N 34°59' E 136°47'0 0.1
2017-Dec-13 06:29N 34°59' E 136°47'0 0.1
2017-Dec-13 05:59N 34°59' E 136°47'0 0.1
2017-Dec-13 05:29N 34°59' E 136°47'0 0.1
2017-Dec-13 04:59N 34°59' E 136°47'0 0.1
2017-Dec-13 04:29N 34°59' E 136°47'0 0.0
2017-Dec-13 03:59N 34°59' E 136°47'0 0.0
2017-Dec-13 03:29N 34°59' E 136°47'0 0.0
2017-Dec-13 02:59N 34°59' E 136°47'0 0.0
2017-Dec-13 02:29N 34°59' E 136°47'0 0.0
2017-Dec-13 01:59N 34°59' E 136°47'0 0.1
2017-Dec-13 01:29N 34°59' E 136°47'0 0.0
2017-Dec-13 00:59N 34°59' E 136°47'0 0.1
2017-Dec-13 00:29N 34°59' E 136°47'0 0.0
2017-Dec-12 23:59N 34°59' E 136°47'0 0.0
2017-Dec-12 23:29N 34°59' E 136°47'0 0.0
2017-Dec-12 22:59N 34°59' E 136°47'0 0.0
2017-Dec-12 22:29N 34°59' E 136°47'0 0.0
2017-Dec-12 21:59N 34°59' E 136°47'0 0.0
2017-Dec-12 21:29N 34°59' E 136°47'0 0.0
2017-Dec-12 20:59N 34°59' E 136°47'0 0.1
2017-Dec-12 20:28N 34°59' E 136°47'0 0.0
2017-Dec-12 19:59N 34°59' E 136°47'0 0.0
2017-Dec-12 19:26N 34°59' E 136°47'0 0.1
2017-Dec-12 18:58N 34°59' E 136°47'0 0.0
2017-Dec-12 18:28N 34°59' E 136°47'0 0.0
2017-Dec-12 17:58N 34°59' E 136°47'0 0.0
2017-Dec-12 17:28N 34°59' E 136°47'0 0.0
2017-Dec-12 16:58N 34°59' E 136°47'0 0.0
2017-Dec-12 16:28N 34°59' E 136°47'0 0.0
2017-Dec-12 15:58N 34°59' E 136°47'0 0.0
2017-Dec-12 15:28N 34°59' E 136°47'0 0.0
2017-Dec-12 14:58N 34°59' E 136°47'0 0.0
2017-Dec-12 14:28N 34°59' E 136°47'0 0.0
2017-Dec-12 13:58N 34°59' E 136°47'0 0.1
2017-Dec-12 13:28N 34°59' E 136°47'0 0.0
2017-Dec-12 12:58N 34°59' E 136°47'0 0.0
2017-Dec-12 12:19N 34°59' E 136°47'0 0.0
2017-Dec-12 11:58N 34°59' E 136°47'0 0.0
2017-Dec-12 11:28N 34°59' E 136°47'0 0.0
2017-Dec-12 10:58N 34°59' E 136°47'0 0.1
2017-Dec-12 10:28N 34°59' E 136°47'0 0.0
2017-Dec-12 09:58N 34°59' E 136°47'0 0.1
2017-Dec-12 09:28N 34°59' E 136°47'0 0.1
2017-Dec-12 08:58N 34°59' E 136°47'0 0.0
2017-Dec-12 08:28N 34°59' E 136°47'0 0.0
2017-Dec-12 07:58N 34°59' E 136°47'0 0.0
2017-Dec-12 07:28N 34°59' E 136°47'0 0.0
2017-Dec-12 06:58N 34°59' E 136°47'0 0.0
2017-Dec-12 06:28N 34°59' E 136°47'0 0.0
2017-Dec-12 05:58N 34°59' E 136°47'0 0.0
2017-Dec-12 05:28N 34°59' E 136°47'0 0.0
2017-Dec-12 04:58N 34°59' E 136°47'0 0.0
2017-Dec-12 04:28N 34°59' E 136°47'0 0.1
2017-Dec-12 03:58N 34°59' E 136°47'0 0.0
2017-Dec-12 03:28N 34°59' E 136°47'0 0.0
2017-Dec-12 02:58N 34°59' E 136°47'0 0.0
2017-Dec-12 02:28N 34°59' E 136°47'0 0.0
2017-Dec-12 01:55N 34°59' E 136°47'0 0.0
2017-Dec-12 01:28N 34°59' E 136°47'0 0.1
2017-Dec-12 00:58N 34°59' E 136°47'0 0.0
2017-Dec-12 00:28N 34°59' E 136°47'0 0.0
2017-Dec-12 00:00N 34°59' E 136°47'0 0.1
2017-Dec-11 23:30N 34°59' E 136°47'0 0.0
2017-Dec-11 23:00N 34°59' E 136°47'0 0.0
2017-Dec-11 22:30N 34°59' E 136°47'0 0.0
2017-Dec-11 22:00N 34°59' E 136°47'0 0.0
2017-Dec-11 21:30N 34°59' E 136°47'0 0.0
2017-Dec-11 21:00N 34°59' E 136°47'0 0.0
2017-Dec-11 20:30N 34°59' E 136°47'0 0.0
2017-Dec-11 20:00N 34°59' E 136°47'0 0.0
2017-Dec-11 19:30N 34°59' E 136°47'0 0.0
2017-Dec-11 19:00N 34°59' E 136°47'0 0.0
2017-Dec-11 18:30N 34°59' E 136°47'0 0.0
2017-Dec-11 18:00N 34°59' E 136°47'0 0.0
2017-Dec-11 17:30N 34°59' E 136°47'0 0.0
2017-Dec-11 17:00N 34°59' E 136°47'0 0.0
2017-Dec-11 16:30N 34°59' E 136°47'0 0.0
2017-Dec-11 16:00N 34°59' E 136°47'2 4.9
2017-Dec-11 15:30N 35°00' E 136°49'0 0.0
2017-Dec-11 15:00N 35°00' E 136°49'0 0.0
2017-Dec-11 14:30N 35°00' E 136°49'0 0.0
2017-Dec-11 14:00N 35°00' E 136°49'0 0.0
2017-Dec-11 13:30N 35°00' E 136°49'3 5.3
2017-Dec-11 13:01N 35°02' E 136°51'3 5.5
2017-Dec-11 12:31N 35°00' E 136°49'0 0.2
2017-Dec-11 12:00N 35°00' E 136°49'2 3.9
2017-Dec-11 11:30N 35°02' E 136°51'1 1.4
2017-Dec-11 11:00N 35°01' E 136°50'1 2.6
2017-Dec-11 10:30N 35°00' E 136°49'0 0.0
2017-Dec-11 10:00N 35°00' E 136°49'2 3.3
2017-Dec-11 09:30N 35°02' E 136°51'1 1.1
2017-Dec-11 09:00N 35°02' E 136°51'2 4.4
2017-Dec-11 08:30N 35°00' E 136°49'0 0.0
2017-Dec-11 08:00N 35°00' E 136°49'0 0.0
2017-Dec-11 07:30N 35°00' E 136°49'0 0.0
2017-Dec-11 07:00N 35°00' E 136°49'0 0.0
2017-Dec-11 06:30N 35°00' E 136°49'0 0.0
2017-Dec-11 06:00N 35°00' E 136°49'0 0.0
2017-Dec-11 05:30N 35°00' E 136°49'2 4.7
2017-Dec-11 05:00N 35°02' E 136°51'2 4.8
2017-Dec-11 04:30N 35°00' E 136°49'0 0.1
2017-Dec-11 04:00N 35°00' E 136°49'3 5.1
2017-Dec-11 03:30N 35°02' E 136°51'2 4.5
2017-Dec-11 03:00N 35°00' E 136°50'0 0.9
2017-Dec-11 02:30N 35°00' E 136°49'0 0.0
2017-Dec-11 02:00N 35°00' E 136°49'0 0.0
2017-Dec-11 01:30N 35°00' E 136°49'0 0.0
2017-Dec-11 01:00N 35°00' E 136°49'2 4.7
2017-Dec-11 00:30N 35°02' E 136°51'1 2.1
2017-Dec-11 00:00N 35°03' E 136°50'1 1.3
2017-Dec-10 23:28N 35°03' E 136°51'  

Dump ship's entire track history